Pagrindinis puslapis
METAR-TAF:

METAR-TAF

Oro uostai :

Košicė, Slovakija

platuma: 48-39-47N, ilguma: 021-14-28E, Aukštis: 232 m

Dabartinis oras

Ataskaita buvo paskelbta 33 minutes, ne 04:30 UTC
Vėjas 5 kt iš Šiaurės/Šiaurės Rytų
Temperatūra 15°C
Drėgmė 82%
Slėgis 1020 hPa
Matomumas 10 km arba daugiau
nėra debesų žemiau 1500 m ir nėra kamuolinių lietaus debesų

METAR: LZKZ 260430Z 03005KT CAVOK 15/12 Q1020 NOSIG

Laikas: 07:03 (05:03 UTC)

Prognozė

Ataskaita buvo paskelbta 5 valandos ir 48 minutes, ne 23:15 UTC
Prognozė galioja nuo 26 metu 00 UTC su 27 metu 00 UTC
Vėjas 5 kt iš Šiaurės
Matomumas 10 km arba daugiau
nėra debesų žemiau 1500 m ir nėra kamuolinių lietaus debesų
Laikinai
nuo 26 metu 08 UTC su 26 metu 17 UTC
Vėjas 12 kt iš Pietų/Pietvakarių

TAF: LZKZ 252315Z 2600/2700 01005KT CAVOK TEMPO 2608/2617 21012KT

Orai ataskaitas ir orų prognozės (METAR, TAF).

turimą stotys yra geltonos ir raudonos taškus žemėlapyje.

Perkelti pele per norėdami pamatyti stoties vardą.

Tada spustelėkite, norėdami matyti oro stebėjimo ir prognozės.

Norėdami pakeisti žemėlapį: spustelėkite ant žalios mygtukų su juodo kryžiaus žemyn,; žalią mygtuką su brūkšneliu, jei norite nutolinti; arba žalių rodyklių gretimoms žemėlapius.


METAR-TAF: